Matlacha, Florida
Current Conditions -  °F | °C
As of 3:53 PM on Sunday 23 Nov 2014 (Local Time) from KFMY Reporting Station
Few Clouds Few Clouds  
Wind Chill: 84°   Ceiling: Unl
Heat Index: 89°   Visibility: 10mi
Dew Point: 71°   Wind: 13mph
Humidity: 65%   Direction: 210°SSW
Pressure: 29.88"   Gusts: 20mph
Location:  26.6904°N, 82.0304°W
Report Text: KFMY 232053Z AUTO 21011G17KT 10SM FEW030 29/22 A2988 RMK AO2 SLP119 T02890217 56018
Loading
Personal Weather Stations






























Interactive Weather Map New forecast layout! Learn more

10-Day Weather Forecast

Advertisements
Track Severe Weather on mobile